Latest Weather Observations for Port Lincoln Airport

IDS60801

Issued at 1:02 pm CST Wednesday 22 April 2015 (issued every 30 minutes, with the page automatically refreshed every 10 minutes)

About weather observations | Map of weather stations | Latest weather observations for SA | Other Formats
Station Details ID: 018192 Name: PORT LINCOLN AWS Lat: -34.60 Lon: 135.88 Height: 8.5 m
Data from the previous 72 hours. | See also: Recent months at Port Lincoln Airport
Date/Time
CST
Temp
°C
App
Temp
°C
Dew
Point
Rel
Hum
%
Delta-T
°C
Wind Press
QNH
hPa
Press
MSL
hPa
Rain
since 9 am
mm
Dir
 
Spd
km/h
Gust
km/h
Spd
kts
Gust
kts
22/01:00pm 17.2 14.7 11.0 67 3.3 E 15 20 8 11 1025.3 1025.3 0.0
22/12:30pm 16.5 13.9 10.6 68 3.1 ESE 15 20 8 11 1026.0 1026.0 0.0
22/12:00pm 17.2 13.8 11.2 68 3.2 E 20 26 11 14 1026.1 1026.1 0.0
22/11:30am 18.1 15.5 11.9 67 3.4 E 17 24 9 13 1026.6 1026.6 0.0
22/11:00am 17.0 13.7 11.5 70 3.0 ESE 20 26 11 14 1026.9 1026.9 0.0
22/10:30am 16.5 13.3 11.4 72 2.7 ESE 19 26 10 14 1027.0 1027.0 0.0
22/10:00am 16.8 13.4 11.3 70 3.0 ESE 20 26 11 14 1027.3 1027.3 0.0
22/09:30am 16.7 13.5 11.4 71 2.8 ESE 19 26 10 14 1027.5 1027.5 0.0
22/09:00am 16.5 13.7 11.2 71 2.8 ESE 17 20 9 11 1027.7 1027.7 0.0
22/08:30am 16.8 13.5 10.9 68 3.1 ESE 19 24 10 13 1027.6 1027.6 0.0
22/08:00am 15.5 12.6 11.1 75 2.3 ESE 17 20 9 11 1027.4 1027.4 0.0
22/07:30am 15.1 13.5 11.5 79 1.9 ESE 11 15 6 8 1027.4 1027.4 0.0
22/07:00am 13.3 11.1 10.7 84 1.4 ESE 13 15 7 8 1027.4 1027.4 0.0
22/06:30am 12.9 10.5 9.9 82 1.5 ESE 13 15 7 8 1027.4 1027.4 0.0
22/06:00am 13.7 10.8 9.7 77 2.0 E 15 17 8 9 1027.5 1027.5 0.0
22/05:30am 13.9 11.5 10.1 78 2.0 ESE 13 17 7 9 1027.6 1027.6 0.0
22/05:00am 14.2 11.4 10.0 76 2.2 E 15 20 8 11 1027.4 1027.4 0.0
22/04:30am 14.6 12.1 11.0 79 1.9 ESE 15 19 8 10 1027.3 1027.3 0.0
22/04:00am 13.5 10.5 10.5 82 1.6 ESE 17 19 9 10 1027.4 1027.4 0.0
22/03:30am 13.4 10.2 10.0 80 1.7 ESE 17 20 9 11 1027.4 1027.4 0.0
22/03:00am 13.1 10.2 9.7 80 1.7 ESE 15 20 8 11 1027.7 1027.7 0.0
22/02:30am 12.9 9.6 9.4 79 1.8 SE 17 19 9 10 1028.2 1028.2 0.0
22/02:00am 13.4 10.1 9.5 77 2.0 SE 17 20 9 11 1028.4 1028.4 0.0
22/01:30am 13.6 11.1 9.8 78 1.9 SE 13 17 7 9 1028.8 1028.8 0.0
22/01:00am 13.1 10.0 9.0 76 2.1 SE 15 17 8 9 1028.9 1028.9 0.0
22/12:30am 13.6 10.1 8.9 73 2.4 ESE 17 20 9 11 1029.0 1029.0 0.0
22/12:00am 14.8 10.8 9.2 69 2.8 ESE 20 24 11 13 1029.0 1029.0 0.0
 
Date/Time
CST
Temp
°C
App
Temp
°C
Dew
Point
Rel
Hum
%
Delta-T
°C
Wind Press
QNH
hPa
Press
MSL
hPa
Rain
since 9 am
mm
Dir
 
Spd
km/h
Gust
km/h
Spd
kts
Gust
kts
21/11:30pm 15.1 9.7 9.5 69 2.9 ESE 28 33 15 18 1029.0 1029.0 0.0
21/11:00pm 14.8 9.6 8.7 67 3.1 ESE 26 33 14 18 1029.2 1029.2 0.0
21/10:30pm 15.2 9.7 9.3 68 3.0 E 28 35 15 19 1029.5 1029.5 0.0
21/10:00pm 15.4 10.1 9.7 69 3.0 E 28 35 15 19 1029.8 1029.8 0.0
21/09:30pm 15.6 11.1 10.2 70 2.8 E 24 30 13 16 1030.3 1030.3 0.0
21/09:00pm 15.6 12.2 10.4 71 2.7 ESE 19 28 10 15 1030.3 1030.3 0.0
21/08:30pm 15.2 11.0 9.6 69 2.9 ESE 22 28 12 15 1029.9 1029.9 0.0
21/08:00pm 14.6 10.3 9.4 71 2.7 ESE 22 28 12 15 1030.1 1030.1 0.0
21/07:30pm 13.8 9.9 9.3 74 2.3 ESE 20 24 11 13 1030.0 1030.0 0.0
21/07:00pm 13.5 10.1 9.0 74 2.3 ESE 17 20 9 11 1030.0 1030.0 0.0
21/06:30pm 13.4 10.0 9.3 76 2.1 ESE 17 20 9 11 1029.9 1029.9 0.0
21/06:00pm 13.9 11.7 9.5 75 2.2 SE 11 13 6 7 1030.1 1030.1 0.0
21/05:30pm 15.0 12.9 9.8 71 2.7 SE 11 15 6 8 1029.9 1029.9 0.0
21/05:00pm 15.8 12.8 9.2 65 3.4 SE 15 19 8 10 1030.1 1030.1 0.0
21/04:30pm 15.7 12.7 9.4 66 3.2 E 15 19 8 10 1030.3 1030.3 0.0
21/04:00pm 16.6 13.4 9.8 64 3.6 E 17 20 9 11 1030.3 1030.3 0.0
21/03:30pm 16.5 13.4 9.0 61 3.8 E 15 24 8 13 1030.4 1030.4 0.0
21/03:00pm 17.2 14.0 10.1 63 3.7 ENE 17 22 9 12 1030.6 1030.6 0.0
21/02:30pm 16.9 13.5 9.3 61 3.9 E 17 24 9 13 1030.7 1030.7 0.0
21/02:00pm 16.8 13.5 9.7 63 3.7 E 17 22 9 12 1031.2 1031.2 0.0
21/01:30pm 17.2 12.8 9.1 59 4.2 E 22 28 12 15 1031.6 1031.6 0.0
21/01:00pm 16.5 11.7 9.0 61 3.9 E 24 30 13 16 1032.1 1032.1 0.0
21/12:30pm 16.4 11.9 8.6 60 3.9 E 22 32 12 17 1032.7 1032.7 0.0
21/12:00pm 15.9 10.9 7.9 59 4.0 ENE 24 30 13 16 1033.4 1033.4 0.0
21/11:30am 16.7 11.8 9.9 64 3.5 E 26 35 14 19 1033.8 1033.8 0.0
21/11:00am 16.8 11.6 9.0 60 4.0 E 26 35 14 19 1034.1 1034.1 0.0
21/10:30am 16.6 11.0 8.8 60 4.0 E 28 35 15 19 1034.2 1034.2 0.0
21/10:00am 16.1 10.5 8.8 62 3.7 E 28 37 15 20 1034.4 1034.4 0.0
21/09:30am 15.4 9.4 8.6 64 3.4 E 30 35 16 19 1034.6 1034.6 0.0
21/09:00am 16.1 10.6 9.3 64 3.5 E 28 35 15 19 1034.8 1034.8 0.0
21/08:30am 15.8 10.3 9.2 65 3.4 E 28 35 15 19 1034.8 1034.8 0.0
21/08:00am 15.2 10.1 9.3 68 3.0 E 26 32 14 17 1034.4 1034.4 0.0
21/07:30am 14.6 9.9 9.4 71 2.6 E 24 32 13 17 1034.2 1034.2 0.0
21/07:00am 14.6 10.0 9.6 72 2.6 E 24 30 13 16 1034.1 1034.1 0.0
21/06:30am 14.7 10.9 9.7 72 2.6 ESE 20 26 11 14 1034.2 1034.2 0.0
21/06:00am 14.6 10.9 10.2 75 2.3 ESE 20 26 11 14 1034.1 1034.1 0.0
21/05:30am 14.5 10.9 9.9 74 2.4 ESE 19 24 10 13 1034.2 1034.2 0.0
21/05:00am 14.7 10.7 9.1 69 2.9 ESE 20 26 11 14 1034.2 1034.2 0.0
21/04:30am 14.8 10.6 8.1 64 3.3 E 20 30 11 16 1034.1 1034.1 0.0
21/04:00am 14.7 8.8 7.7 63 3.5 E 28 35 15 19 1034.1 1034.1 0.0
21/03:30am 14.9 9.8 9.3 69 2.8 ESE 26 33 14 18 1034.2 1034.2 0.0
21/03:00am 14.9 9.8 9.3 69 2.8 ESE 26 32 14 17 1034.5 1034.5 0.0
21/02:30am 14.8 9.8 9.4 70 2.7 ESE 26 33 14 18 1034.6 1034.6 0.0
21/02:00am 14.7 9.9 8.9 68 2.9 ESE 24 32 13 17 1034.9 1034.9 0.0
21/01:30am 14.8 10.3 8.7 67 3.1 ESE 22 33 12 18 1035.0 1035.0 0.0
21/01:00am 14.6 10.0 8.3 66 3.2 ESE 22 32 12 17 1035.3 1035.3 0.0
21/12:30am 14.5 9.4 7.5 63 3.4 ESE 24 33 13 18 1035.4 1035.4 0.0
21/12:00am 14.5 9.3 7.3 62 3.5 ESE 24 33 13 18 1035.6 1035.6 0.0
 
Date/Time
CST
Temp
°C
App
Temp
°C
Dew
Point
Rel
Hum
%
Delta-T
°C
Wind Press
QNH
hPa
Press
MSL
hPa
Rain
since 9 am
mm
Dir
 
Spd
km/h
Gust
km/h
Spd
kts
Gust
kts
20/11:30pm 14.5 8.5 7.1 61 3.6 ESE 28 35 15 19 1035.8 1035.8 0.0
20/11:00pm 14.6 8.3 7.6 63 3.5 ESE 30 37 16 20 1036.1 1036.1 0.0
20/10:30pm 14.7 10.0 9.1 69 2.8 ESE 24 30 13 16 1036.3 1036.3 0.0
20/10:00pm 14.5 9.8 9.1 70 2.8 ESE 24 32 13 17 1036.4 1036.4 0.0
20/09:30pm 14.5 10.2 9.3 71 2.6 SE 22 30 12 16 1036.4 1036.4 0.0
20/09:00pm 14.0 10.4 9.8 76 2.1 SSE 19 24 10 13 1036.3 1036.3 0.0
20/08:30pm 13.3 9.3 9.2 76 2.1 SE 20 26 11 14 1036.3 1036.3 0.0
20/08:00pm 13.2 8.8 8.9 75 2.2 SSE 22 28 12 15 1036.4 1036.4 0.0
20/07:30pm 13.7 8.5 8.7 72 2.5 SSE 26 33 14 18 1036.4 1036.4 0.0
20/07:00pm 13.8 8.4 8.2 69 2.8 SSE 26 33 14 18 1036.5 1036.5 0.0
20/06:30pm 13.7 8.7 8.1 69 2.8 SE 24 28 13 15 1036.3 1036.3 0.0
20/06:00pm 13.3 9.5 7.7 69 2.7 SE 17 20 9 11 1036.3 1036.3 0.0
20/05:30pm 14.0 10.3 8.0 67 2.9 SE 17 22 9 12 1036.2 1036.2 0.0
20/05:00pm 14.9 10.6 7.2 60 3.8 ESE 19 26 10 14 1036.2 1036.2 0.0
20/04:30pm 15.2 11.0 7.5 60 3.8 SE 19 24 10 13 1036.2 1036.2 0.0
20/04:00pm 14.9 11.6 7.9 63 3.5 SE 15 24 8 13 1036.2 1036.2 0.0
20/03:30pm 15.5 12.6 8.0 61 3.7 E 13 22 7 12 1036.3 1036.3 0.0
20/03:00pm 14.9 11.0 7.2 60 3.7 E 17 26 9 14 1036.4 1036.4 0.0
20/02:30pm 15.2 11.3 7.0 58 4.0 ENE 17 24 9 13 1036.4 1036.4 0.0
20/02:00pm 14.9 11.4 7.0 59 3.9 ENE 15 22 8 12 1036.8 1036.8 0.0
20/01:30pm 14.9 10.6 7.0 59 3.8 ENE 19 24 10 13 1037.2 1037.2 0.0
20/01:00pm 14.9 10.5 7.2 60 3.8 ENE 20 24 11 13 1037.4 1037.4 0.0
20/12:30pm 15.5 10.7 7.5 59 3.9 E 22 28 12 15 1037.9 1037.9 0.0
20/12:00pm 15.8 11.3 6.8 55 4.4 ENE 20 33 11 18 1038.2 1038.2 0.0
20/11:30am 15.7 10.9 7.5 58 4.0 ENE 22 30 12 16 1038.5 1038.5 0.0
20/11:00am 16.2 11.5 7.7 57 4.3 ENE 22 28 12 15 1038.8 1038.8 0.0
20/10:30am 15.4 10.8 8.2 62 3.6 E 22 32 12 17 1038.9 1038.9 0.0
20/10:00am 15.1 10.3 8.8 66 3.2 E 24 30 13 16 1038.9 1038.9 0.0
20/09:30am 15.6 10.6 7.9 60 3.8 E 24 32 13 17 1038.9 1038.9 0.0
20/09:00am 14.4 9.9 8.4 67 3.0 E 22 28 12 15 1039.0 1039.0 0.0
20/08:30am 14.5 8.8 8.5 67 3.0 E 28 33 15 18 1038.9 1038.9 0.0
20/08:00am 14.3 8.5 8.0 66 3.1 E 28 35 15 19 1038.6 1038.6 0.0
20/07:30am 13.7 8.8 6.8 63 3.3 ESE 22 28 12 15 1038.2 1038.2 0.0
20/07:00am 12.3 7.7 6.6 68 2.7 ESE 20 24 11 13 1038.1 1038.1 0.0
20/06:30am 13.5 8.6 7.1 65 3.1 ESE 22 28 12 15 1037.9 1037.9 0.0
20/06:00am 12.5 8.2 7.0 69 2.6 ESE 19 20 10 11 1037.8 1037.8 0.0
20/05:30am 13.1 8.4 6.2 63 3.2 ESE 20 28 11 15 1037.6 1037.6 0.0
20/05:00am 13.2 8.1 6.1 62 3.4 ESE 22 28 12 15 1037.6 1037.6 0.0
20/04:30am 12.7 8.1 5.6 62 3.3 ESE 19 22 10 12 1037.5 1037.5 0.0
20/04:00am 12.9 8.4 6.0 63 3.3 ESE 19 22 10 12 1037.3 1037.3 0.0
20/03:30am 12.6 8.0 5.8 63 3.2 ESE 19 24 10 13 1037.4 1037.4 0.0
20/03:00am 12.3 7.5 4.8 60 3.4 ESE 19 22 10 12 1037.5 1037.5 0.0
20/02:30am 11.9 7.1 4.6 61 3.3 ESE 19 22 10 12 1037.7 1037.7 0.0
20/02:00am 12.4 7.5 5.1 61 3.4 ESE 20 24 11 13 1037.8 1037.8 0.0
20/01:30am 13.1 7.7 4.5 56 3.9 ESE 22 30 12 16 1037.8 1037.8 0.0
20/01:00am 13.6 9.0 5.5 58 3.8 ESE 19 26 10 14 1037.7 1037.7 0.0
20/12:30am 13.5 8.0 5.9 60 3.6 ESE 24 33 13 18 1037.7 1037.7 0.0
20/12:00am 13.6 8.2 6.2 61 3.5 SE 24 30 13 16 1037.8 1037.8 0.0
 
Date/Time
CST
Temp
°C
App
Temp
°C
Dew
Point
Rel
Hum
%
Delta-T
°C
Wind Press
QNH
hPa
Press
MSL
hPa
Rain
since 9 am
mm
Dir
 
Spd
km/h
Gust
km/h
Spd
kts
Gust
kts
19/11:30pm 13.0 7.8 5.4 60 3.5 SE 22 30 12 16 1037.9 1037.9 0.0
19/11:00pm 13.4 7.7 5.1 57 3.9 SE 24 32 13 17 1037.8 1037.8 0.0
19/10:30pm 13.2 7.6 5.4 59 3.6 ESE 24 32 13 17 1037.8 1037.8 0.0
19/10:00pm 13.2 7.6 5.6 60 3.6 SE 24 30 13 16 1037.7 1037.7 0.0
19/09:30pm 13.1 8.2 5.3 59 3.6 SE 20 26 11 14 1037.4 1037.4 0.0
19/09:00pm 14.0 8.1 5.6 57 3.9 SE 26 32 14 17 1037.2 1037.2 0.0
19/08:30pm 14.0 8.8 5.4 56 4.0 SE 22 28 12 15 1037.1 1037.1 0.0
19/08:00pm 14.2 9.2 6.6 60 3.7 SE 22 28 12 15 1036.9 1036.9 0.0
19/07:30pm 12.3 7.9 4.8 60 3.4 SE 17 20 9 11 1036.6 1036.6 0.0
19/07:00pm 13.6 8.1 4.2 53 4.3 SE 22 28 12 15 1036.1 1036.1 0.0
19/06:30pm 12.7 7.9 4.7 58 3.6 SE 19 26 10 14 1035.9 1035.9 0.0
19/06:00pm 13.7 7.8 4.0 52 4.4 SE 24 28 13 15 1035.6 1035.6 0.0
19/05:30pm 14.4 9.0 4.7 52 4.5 SE 22 32 12 17 1035.3 1035.3 0.0
19/05:00pm 15.1 9.8 4.8 50 4.8 SE 22 28 12 15 1035.2 1035.2 0.0
19/04:30pm 15.4 9.6 4.5 48 5.0 SE 24 33 13 18 1035.1 1035.1 0.0
19/04:00pm 15.9 9.6 4.0 45 5.5 SE 26 32 14 17 1035.0 1035.0 0.0
19/03:30pm 16.1 10.1 5.1 48 5.2 SE 26 32 14 17 1034.9 1034.9 0.0
19/03:00pm 16.3 9.9 3.0 41 6.0 SE 26 33 14 18 1034.7 1034.7 0.0
19/02:30pm 16.5 9.8 3.9 43 5.8 SE 28 32 15 17 1034.6 1034.6 0.0
19/02:00pm 16.6 9.7 2.6 39 6.3 SE 28 37 15 20 1034.4 1034.4 0.0
19/01:30pm 16.0 8.6 3.8 44 5.6 SE 32 39 17 21 1034.5 1034.5 0.0

Other Formats:

Comma delimited format used in spreadsheet applications
http://www.bom.gov.au/fwo/IDS60801/IDS60801.95661.axf

JavaScript Object Notation format (JSON) in row-major order
http://www.bom.gov.au/fwo/IDS60801/IDS60801.95661.json